sensor_id;sensor_type;location;lat;lon;timestamp;P1;durP1;ratioP1;P2;durP2;ratioP2
15071;SDS011;7635;56.696;13.002;2023-03-17T00:00:05;2.13;;;1.20;;
15071;SDS011;7635;56.696;13.002;2023-03-17T00:02:34;0.90;;;0.90;;
15071;SDS011;7635;56.696;13.002;2023-03-17T00:05:05;2.17;;;1.20;;
15071;SDS011;7635;56.696;13.002;2023-03-17T00:07:38;1.30;;;1.10;;
15071;SDS011;7635;56.696;13.002;2023-03-17T00:10:08;1.70;;;1.07;;
15071;SDS011;7635;56.696;13.002;2023-03-17T00:12:38;1.40;;;1.30;;
15071;SDS011;7635;56.696;13.002;2023-03-17T00:15:05;1.87;;;1.00;;
15071;SDS011;7635;56.696;13.002;2023-03-17T00:17:34;1.90;;;1.10;;
15071;SDS011;7635;56.696;13.002;2023-03-17T00:20:02;2.20;;;0.97;;
15071;SDS011;7635;56.696;13.002;2023-03-17T00:22:30;1.17;;;1.07;;
15071;SDS011;7635;56.696;13.002;2023-03-17T00:24:57;1.83;;;1.17;;
15071;SDS011;7635;56.696;13.002;2023-03-17T00:27:24;1.07;;;1.00;;
15071;SDS011;7635;56.696;13.002;2023-03-17T00:29:50;1.40;;;1.20;;
15071;SDS011;7635;56.696;13.002;2023-03-17T00:32:17;0.90;;;0.90;;
15071;SDS011;7635;56.696;13.002;2023-03-17T00:34:45;1.30;;;1.20;;
15071;SDS011;7635;56.696;13.002;2023-03-17T00:37:13;1.23;;;0.93;;
15071;SDS011;7635;56.696;13.002;2023-03-17T00:39:40;0.80;;;0.80;;
15071;SDS011;7635;56.696;13.002;2023-03-17T00:42:07;1.10;;;1.03;;
15071;SDS011;7635;56.696;13.002;2023-03-17T00:44:34;1.23;;;1.00;;
15071;SDS011;7635;56.696;13.002;2023-03-17T00:47:01;1.20;;;1.10;;
15071;SDS011;7635;56.696;13.002;2023-03-17T00:49:27;1.00;;;1.00;;
15071;SDS011;7635;56.696;13.002;2023-03-17T00:51:54;1.37;;;1.20;;
15071;SDS011;7635;56.696;13.002;2023-03-17T00:54:22;1.03;;;0.97;;
15071;SDS011;7635;56.696;13.002;2023-03-17T00:56:49;0.90;;;0.90;;
15071;SDS011;7635;56.696;13.002;2023-03-17T00:59:20;1.07;;;0.97;;
15071;SDS011;7635;56.696;13.002;2023-03-17T01:01:51;2.23;;;1.10;;
15071;SDS011;7635;56.696;13.002;2023-03-17T01:04:18;1.53;;;0.73;;
15071;SDS011;7635;56.696;13.002;2023-03-17T01:06:45;2.87;;;1.23;;
15071;SDS011;7635;56.696;13.002;2023-03-17T01:09:12;0.90;;;0.90;;
15071;SDS011;7635;56.696;13.002;2023-03-17T01:11:42;3.00;;;1.13;;
15071;SDS011;7635;56.696;13.002;2023-03-17T01:14:09;2.67;;;1.40;;
15071;SDS011;7635;56.696;13.002;2023-03-17T01:16:36;0.80;;;0.80;;
15071;SDS011;7635;56.696;13.002;2023-03-17T01:19:03;1.17;;;0.77;;
15071;SDS011;7635;56.696;13.002;2023-03-17T01:21:30;1.20;;;1.10;;
15071;SDS011;7635;56.696;13.002;2023-03-17T01:23:57;1.90;;;0.77;;
15071;SDS011;7635;56.696;13.002;2023-03-17T01:26:24;1.87;;;1.30;;
15071;SDS011;7635;56.696;13.002;2023-03-17T01:28:52;1.80;;;0.87;;
15071;SDS011;7635;56.696;13.002;2023-03-17T01:31:19;1.67;;;0.83;;
15071;SDS011;7635;56.696;13.002;2023-03-17T01:33:47;2.53;;;1.60;;
15071;SDS011;7635;56.696;13.002;2023-03-17T01:36:13;0.83;;;0.83;;
15071;SDS011;7635;56.696;13.002;2023-03-17T01:38:41;1.53;;;1.20;;
15071;SDS011;7635;56.696;13.002;2023-03-17T01:41:08;1.27;;;1.17;;
15071;SDS011;7635;56.696;13.002;2023-03-17T01:43:36;2.13;;;0.97;;
15071;SDS011;7635;56.696;13.002;2023-03-17T01:46:17;1.37;;;0.83;;
15071;SDS011;7635;56.696;13.002;2023-03-17T01:48:51;1.07;;;1.07;;
15071;SDS011;7635;56.696;13.002;2023-03-17T01:51:25;1.33;;;1.20;;
15071;SDS011;7635;56.696;13.002;2023-03-17T01:53:56;1.27;;;1.17;;
15071;SDS011;7635;56.696;13.002;2023-03-17T01:56:25;1.57;;;1.30;;
15071;SDS011;7635;56.696;13.002;2023-03-17T01:58:52;0.67;;;0.67;;
15071;SDS011;7635;56.696;13.002;2023-03-17T02:01:26;1.53;;;1.13;;
15071;SDS011;7635;56.696;13.002;2023-03-17T02:03:58;1.53;;;1.40;;
15071;SDS011;7635;56.696;13.002;2023-03-17T02:06:27;1.33;;;1.03;;
15071;SDS011;7635;56.696;13.002;2023-03-17T02:08:54;1.20;;;1.10;;
15071;SDS011;7635;56.696;13.002;2023-03-17T02:11:21;1.23;;;1.10;;
15071;SDS011;7635;56.696;13.002;2023-03-17T02:13:48;3.70;;;1.27;;
15071;SDS011;7635;56.696;13.002;2023-03-17T02:16:15;2.73;;;1.20;;
15071;SDS011;7635;56.696;13.002;2023-03-17T02:18:43;0.47;;;0.47;;
15071;SDS011;7635;56.696;13.002;2023-03-17T02:24:04;2.43;;;1.10;;
15071;SDS011;7635;56.696;13.002;2023-03-17T02:26:35;1.33;;;1.07;;
15071;SDS011;7635;56.696;13.002;2023-03-17T02:29:03;3.57;;;1.10;;
15071;SDS011;7635;56.696;13.002;2023-03-17T02:31:30;1.00;;;1.00;;
15071;SDS011;7635;56.696;13.002;2023-03-17T02:33:58;0.70;;;0.70;;
15071;SDS011;7635;56.696;13.002;2023-03-17T02:36:25;2.90;;;1.03;;
15071;SDS011;7635;56.696;13.002;2023-03-17T02:38:54;0.67;;;0.67;;
15071;SDS011;7635;56.696;13.002;2023-03-17T02:41:21;1.47;;;1.10;;
15071;SDS011;7635;56.696;13.002;2023-03-17T02:43:48;0.87;;;0.83;;
15071;SDS011;7635;56.696;13.002;2023-03-17T02:46:16;1.38;;;1.20;;
15071;SDS011;7635;56.696;13.002;2023-03-17T02:48:42;1.03;;;1.00;;
15071;SDS011;7635;56.696;13.002;2023-03-17T02:51:11;1.10;;;1.00;;
15071;SDS011;7635;56.696;13.002;2023-03-17T02:53:38;0.53;;;0.53;;
15071;SDS011;7635;56.696;13.002;2023-03-17T02:56:06;1.00;;;0.90;;
15071;SDS011;7635;56.696;13.002;2023-03-17T02:58:33;2.57;;;0.90;;
15071;SDS011;7635;56.696;13.002;2023-03-17T03:01:00;1.03;;;0.90;;
15071;SDS011;7635;56.696;13.002;2023-03-17T03:03:27;3.10;;;1.00;;
15071;SDS011;7635;56.696;13.002;2023-03-17T03:05:55;1.00;;;1.00;;
15071;SDS011;7635;56.696;13.002;2023-03-17T03:08:22;1.57;;;1.10;;
15071;SDS011;7635;56.696;13.002;2023-03-17T03:10:50;1.00;;;1.00;;
15071;SDS011;7635;56.696;13.002;2023-03-17T03:13:18;1.40;;;1.00;;
15071;SDS011;7635;56.696;13.002;2023-03-17T03:15:45;3.33;;;1.30;;
15071;SDS011;7635;56.696;13.002;2023-03-17T03:18:12;2.43;;;1.07;;
15071;SDS011;7635;56.696;13.002;2023-03-17T03:20:40;0.70;;;0.70;;
15071;SDS011;7635;56.696;13.002;2023-03-17T03:23:07;1.37;;;1.00;;
15071;SDS011;7635;56.696;13.002;2023-03-17T03:25:34;1.03;;;1.03;;
15071;SDS011;7635;56.696;13.002;2023-03-17T03:28:02;1.10;;;1.10;;
15071;SDS011;7635;56.696;13.002;2023-03-17T03:30:30;1.47;;;1.17;;
15071;SDS011;7635;56.696;13.002;2023-03-17T03:32:57;1.33;;;1.20;;
15071;SDS011;7635;56.696;13.002;2023-03-17T03:35:24;2.30;;;1.40;;
15071;SDS011;7635;56.696;13.002;2023-03-17T03:37:50;1.90;;;1.13;;
15071;SDS011;7635;56.696;13.002;2023-03-17T03:40:17;1.80;;;1.57;;
15071;SDS011;7635;56.696;13.002;2023-03-17T03:42:44;1.70;;;1.20;;
15071;SDS011;7635;56.696;13.002;2023-03-17T03:45:11;2.60;;;1.20;;
15071;SDS011;7635;56.696;13.002;2023-03-17T03:47:39;1.10;;;1.00;;
15071;SDS011;7635;56.696;13.002;2023-03-17T03:50:06;1.87;;;1.23;;
15071;SDS011;7635;56.696;13.002;2023-03-17T03:52:34;1.50;;;1.30;;
15071;SDS011;7635;56.696;13.002;2023-03-17T03:55:01;0.90;;;0.90;;
15071;SDS011;7635;56.696;13.002;2023-03-17T03:57:28;1.97;;;1.10;;
15071;SDS011;7635;56.696;13.002;2023-03-17T03:59:54;3.83;;;1.40;;
15071;SDS011;7635;56.696;13.002;2023-03-17T04:02:21;1.40;;;1.23;;
15071;SDS011;7635;56.696;13.002;2023-03-17T04:04:49;2.70;;;1.40;;
15071;SDS011;7635;56.696;13.002;2023-03-17T04:07:16;1.83;;;1.30;;
15071;SDS011;7635;56.696;13.002;2023-03-17T04:09:45;1.40;;;1.23;;
15071;SDS011;7635;56.696;13.002;2023-03-17T04:12:13;1.47;;;1.37;;
15071;SDS011;7635;56.696;13.002;2023-03-17T04:14:39;2.80;;;1.90;;
15071;SDS011;7635;56.696;13.002;2023-03-17T04:17:08;1.40;;;1.30;;
15071;SDS011;7635;56.696;13.002;2023-03-17T04:19:35;1.23;;;1.13;;
15071;SDS011;7635;56.696;13.002;2023-03-17T04:22:03;3.33;;;1.40;;
15071;SDS011;7635;56.696;13.002;2023-03-17T04:24:31;1.97;;;0.93;;
15071;SDS011;7635;56.696;13.002;2023-03-17T04:26:58;2.23;;;1.57;;
15071;SDS011;7635;56.696;13.002;2023-03-17T04:29:25;1.97;;;1.33;;
15071;SDS011;7635;56.696;13.002;2023-03-17T04:31:52;1.43;;;1.33;;
15071;SDS011;7635;56.696;13.002;2023-03-17T04:34:18;1.23;;;1.13;;
15071;SDS011;7635;56.696;13.002;2023-03-17T04:36:46;3.17;;;1.60;;
15071;SDS011;7635;56.696;13.002;2023-03-17T04:39:14;1.33;;;1.23;;
15071;SDS011;7635;56.696;13.002;2023-03-17T04:41:42;1.87;;;1.20;;
15071;SDS011;7635;56.696;13.002;2023-03-17T04:44:08;1.77;;;1.37;;
15071;SDS011;7635;56.696;13.002;2023-03-17T04:46:35;2.83;;;1.47;;
15071;SDS011;7635;56.696;13.002;2023-03-17T04:49:02;1.67;;;1.43;;
15071;SDS011;7635;56.696;13.002;2023-03-17T04:51:29;2.67;;;1.50;;
15071;SDS011;7635;56.696;13.002;2023-03-17T04:53:56;4.80;;;1.60;;
15071;SDS011;7635;56.696;13.002;2023-03-17T04:56:24;2.13;;;1.50;;
15071;SDS011;7635;56.696;13.002;2023-03-17T04:58:50;7.07;;;2.00;;
15071;SDS011;7635;56.696;13.002;2023-03-17T05:01:17;2.40;;;1.30;;
15071;SDS011;7635;56.696;13.002;2023-03-17T05:03:45;3.10;;;1.47;;
15071;SDS011;7635;56.696;13.002;2023-03-17T05:06:12;3.17;;;1.53;;
15071;SDS011;7635;56.696;13.002;2023-03-17T05:08:38;1.50;;;1.30;;
15071;SDS011;7635;56.696;13.002;2023-03-17T05:11:07;1.57;;;1.40;;
15071;SDS011;7635;56.696;13.002;2023-03-17T05:13:36;3.03;;;1.60;;
15071;SDS011;7635;56.696;13.002;2023-03-17T05:16:02;2.47;;;1.80;;
15071;SDS011;7635;56.696;13.002;2023-03-17T05:18:29;3.20;;;1.60;;
15071;SDS011;7635;56.696;13.002;2023-03-17T05:20:56;2.43;;;1.60;;
15071;SDS011;7635;56.696;13.002;2023-03-17T05:23:23;2.43;;;1.57;;
15071;SDS011;7635;56.696;13.002;2023-03-17T05:25:50;2.50;;;1.80;;
15071;SDS011;7635;56.696;13.002;2023-03-17T05:28:16;3.50;;;1.63;;
15071;SDS011;7635;56.696;13.002;2023-03-17T05:30:46;1.87;;;1.67;;
15071;SDS011;7635;56.696;13.002;2023-03-17T05:33:14;2.03;;;1.47;;
15071;SDS011;7635;56.696;13.002;2023-03-17T05:35:41;1.77;;;1.43;;
15071;SDS011;7635;56.696;13.002;2023-03-17T05:38:08;2.77;;;1.73;;
15071;SDS011;7635;56.696;13.002;2023-03-17T05:40:36;2.63;;;1.73;;
15071;SDS011;7635;56.696;13.002;2023-03-17T05:43:03;6.13;;;1.73;;
15071;SDS011;7635;56.696;13.002;2023-03-17T05:45:30;3.37;;;1.53;;
15071;SDS011;7635;56.696;13.002;2023-03-17T05:48:00;1.53;;;1.33;;
15071;SDS011;7635;56.696;13.002;2023-03-17T05:50:27;3.00;;;1.80;;
15071;SDS011;7635;56.696;13.002;2023-03-17T05:52:53;3.83;;;2.00;;
15071;SDS011;7635;56.696;13.002;2023-03-17T05:55:20;1.40;;;1.30;;
15071;SDS011;7635;56.696;13.002;2023-03-17T05:57:47;2.20;;;1.47;;
15071;SDS011;7635;56.696;13.002;2023-03-17T06:00:14;3.83;;;2.30;;
15071;SDS011;7635;56.696;13.002;2023-03-17T06:02:42;1.80;;;1.57;;
15071;SDS011;7635;56.696;13.002;2023-03-17T06:05:11;1.30;;;1.20;;
15071;SDS011;7635;56.696;13.002;2023-03-17T06:07:37;3.13;;;1.70;;
15071;SDS011;7635;56.696;13.002;2023-03-17T06:10:06;1.77;;;1.50;;
15071;SDS011;7635;56.696;13.002;2023-03-17T06:12:34;3.33;;;1.50;;
15071;SDS011;7635;56.696;13.002;2023-03-17T06:15:01;3.93;;;1.37;;
15071;SDS011;7635;56.696;13.002;2023-03-17T06:17:29;2.77;;;1.57;;
15071;SDS011;7635;56.696;13.002;2023-03-17T06:19:56;2.30;;;1.70;;
15071;SDS011;7635;56.696;13.002;2023-03-17T06:22:24;3.93;;;1.63;;
15071;SDS011;7635;56.696;13.002;2023-03-17T06:24:51;2.90;;;1.70;;
15071;SDS011;7635;56.696;13.002;2023-03-17T06:27:18;1.83;;;1.53;;
15071;SDS011;7635;56.696;13.002;2023-03-17T06:29:45;2.27;;;1.70;;
15071;SDS011;7635;56.696;13.002;2023-03-17T06:32:12;1.53;;;1.40;;
15071;SDS011;7635;56.696;13.002;2023-03-17T06:34:39;2.53;;;1.67;;
15071;SDS011;7635;56.696;13.002;2023-03-17T06:37:07;2.40;;;1.43;;
15071;SDS011;7635;56.696;13.002;2023-03-17T06:39:35;2.60;;;1.50;;
15071;SDS011;7635;56.696;13.002;2023-03-17T06:42:03;1.57;;;1.47;;
15071;SDS011;7635;56.696;13.002;2023-03-17T06:44:30;2.30;;;1.57;;
15071;SDS011;7635;56.696;13.002;2023-03-17T06:46:57;1.73;;;1.37;;
15071;SDS011;7635;56.696;13.002;2023-03-17T06:49:24;2.80;;;1.70;;
15071;SDS011;7635;56.696;13.002;2023-03-17T06:51:51;2.27;;;1.70;;
15071;SDS011;7635;56.696;13.002;2023-03-17T06:54:18;3.10;;;1.90;;
15071;SDS011;7635;56.696;13.002;2023-03-17T06:56:46;2.17;;;1.60;;
15071;SDS011;7635;56.696;13.002;2023-03-17T06:59:13;3.63;;;1.63;;
15071;SDS011;7635;56.696;13.002;2023-03-17T07:01:40;2.23;;;1.40;;
15071;SDS011;7635;56.696;13.002;2023-03-17T07:04:06;2.30;;;1.67;;
15071;SDS011;7635;56.696;13.002;2023-03-17T07:06:33;2.03;;;1.37;;
15071;SDS011;7635;56.696;13.002;2023-03-17T07:09:00;2.57;;;1.70;;
15071;SDS011;7635;56.696;13.002;2023-03-17T07:11:27;1.37;;;1.27;;
15071;SDS011;7635;56.696;13.002;2023-03-17T07:13:56;2.60;;;1.60;;
15071;SDS011;7635;56.696;13.002;2023-03-17T07:16:22;2.50;;;1.40;;
15071;SDS011;7635;56.696;13.002;2023-03-17T07:18:49;3.00;;;1.70;;
15071;SDS011;7635;56.696;13.002;2023-03-17T07:21:16;3.10;;;1.83;;
15071;SDS011;7635;56.696;13.002;2023-03-17T07:23:43;2.50;;;2.30;;
15071;SDS011;7635;56.696;13.002;2023-03-17T07:26:09;1.87;;;1.73;;
15071;SDS011;7635;56.696;13.002;2023-03-17T07:28:36;3.47;;;2.20;;
15071;SDS011;7635;56.696;13.002;2023-03-17T07:31:05;2.90;;;1.80;;
15071;SDS011;7635;56.696;13.002;2023-03-17T07:33:33;3.77;;;1.53;;
15071;SDS011;7635;56.696;13.002;2023-03-17T07:36:00;1.90;;;1.70;;
15071;SDS011;7635;56.696;13.002;2023-03-17T07:38:27;2.30;;;1.60;;
15071;SDS011;7635;56.696;13.002;2023-03-17T07:40:53;3.63;;;1.80;;
15071;SDS011;7635;56.696;13.002;2023-03-17T07:43:20;3.60;;;1.73;;
15071;SDS011;7635;56.696;13.002;2023-03-17T07:45:47;1.70;;;1.60;;
15071;SDS011;7635;56.696;13.002;2023-03-17T07:48:15;4.83;;;1.83;;
15071;SDS011;7635;56.696;13.002;2023-03-17T07:50:42;4.27;;;2.00;;
15071;SDS011;7635;56.696;13.002;2023-03-17T07:53:09;2.90;;;1.97;;
15071;SDS011;7635;56.696;13.002;2023-03-17T07:55:36;3.27;;;2.10;;
15071;SDS011;7635;56.696;13.002;2023-03-17T07:58:03;4.53;;;2.10;;
15071;SDS011;7635;56.696;13.002;2023-03-17T08:00:29;3.63;;;2.10;;
15071;SDS011;7635;56.696;13.002;2023-03-17T08:02:58;3.57;;;1.90;;
15071;SDS011;7635;56.696;13.002;2023-03-17T08:05:26;1.80;;;1.50;;
15071;SDS011;7635;56.696;13.002;2023-03-17T08:07:53;7.00;;;2.03;;
15071;SDS011;7635;56.696;13.002;2023-03-17T08:10:19;4.10;;;2.20;;
15071;SDS011;7635;56.696;13.002;2023-03-17T08:12:46;3.53;;;2.13;;
15071;SDS011;7635;56.696;13.002;2023-03-17T08:15:16;3.40;;;2.00;;
15071;SDS011;7635;56.696;13.002;2023-03-17T08:17:42;2.50;;;2.10;;
15071;SDS011;7635;56.696;13.002;2023-03-17T08:20:10;5.83;;;2.37;;
15071;SDS011;7635;56.696;13.002;2023-03-17T08:22:39;4.57;;;1.90;;
15071;SDS011;7635;56.696;13.002;2023-03-17T08:25:06;5.30;;;2.13;;
15071;SDS011;7635;56.696;13.002;2023-03-17T08:27:35;3.00;;;2.20;;
15071;SDS011;7635;56.696;13.002;2023-03-17T08:30:02;5.53;;;2.17;;
15071;SDS011;7635;56.696;13.002;2023-03-17T08:32:30;4.10;;;2.27;;
15071;SDS011;7635;56.696;13.002;2023-03-17T08:34:57;3.47;;;2.63;;
15071;SDS011;7635;56.696;13.002;2023-03-17T08:37:24;4.10;;;2.47;;
15071;SDS011;7635;56.696;13.002;2023-03-17T08:39:53;4.73;;;2.50;;
15071;SDS011;7635;56.696;13.002;2023-03-17T08:42:20;3.43;;;2.37;;
15071;SDS011;7635;56.696;13.002;2023-03-17T08:44:47;2.67;;;2.27;;
15071;SDS011;7635;56.696;13.002;2023-03-17T08:47:14;4.00;;;2.33;;
15071;SDS011;7635;56.696;13.002;2023-03-17T08:49:41;2.50;;;2.10;;
15071;SDS011;7635;56.696;13.002;2023-03-17T08:52:08;5.27;;;2.07;;
15071;SDS011;7635;56.696;13.002;2023-03-17T08:54:35;4.73;;;2.67;;
15071;SDS011;7635;56.696;13.002;2023-03-17T08:57:03;4.23;;;2.37;;
15071;SDS011;7635;56.696;13.002;2023-03-17T08:59:30;5.07;;;2.33;;
15071;SDS011;7635;56.696;13.002;2023-03-17T09:01:57;4.47;;;2.17;;
15071;SDS011;7635;56.696;13.002;2023-03-17T09:04:24;4.70;;;1.97;;
15071;SDS011;7635;56.696;13.002;2023-03-17T09:06:51;5.57;;;2.17;;
15071;SDS011;7635;56.696;13.002;2023-03-17T09:09:19;3.43;;;2.23;;
15071;SDS011;7635;56.696;13.002;2023-03-17T09:11:45;4.47;;;2.30;;
15071;SDS011;7635;56.696;13.002;2023-03-17T09:14:13;2.73;;;2.20;;
15071;SDS011;7635;56.696;13.002;2023-03-17T09:16:40;4.00;;;2.20;;
15071;SDS011;7635;56.696;13.002;2023-03-17T09:19:07;3.40;;;2.07;;
15071;SDS011;7635;56.696;13.002;2023-03-17T09:21:34;2.77;;;2.07;;
15071;SDS011;7635;56.696;13.002;2023-03-17T09:24:01;4.97;;;2.23;;
15071;SDS011;7635;56.696;13.002;2023-03-17T09:26:27;2.90;;;2.10;;
15071;SDS011;7635;56.696;13.002;2023-03-17T09:28:54;4.43;;;2.37;;
15071;SDS011;7635;56.696;13.002;2023-03-17T09:31:22;2.57;;;2.10;;
15071;SDS011;7635;56.696;13.002;2023-03-17T09:33:49;5.57;;;3.17;;
15071;SDS011;7635;56.696;13.002;2023-03-17T09:36:17;3.33;;;2.77;;
15071;SDS011;7635;56.696;13.002;2023-03-17T09:38:44;3.47;;;2.50;;
15071;SDS011;7635;56.696;13.002;2023-03-17T09:41:21;3.73;;;2.20;;
15071;SDS011;7635;56.696;13.002;2023-03-17T09:44:07;2.67;;;1.93;;
15071;SDS011;7635;56.696;13.002;2023-03-17T09:46:46;4.83;;;2.63;;
15071;SDS011;7635;56.696;13.002;2023-03-17T09:49:19;2.53;;;2.27;;
15071;SDS011;7635;56.696;13.002;2023-03-17T09:51:49;5.13;;;2.47;;
15071;SDS011;7635;56.696;13.002;2023-03-17T09:54:17;2.97;;;2.53;;
15071;SDS011;7635;56.696;13.002;2023-03-17T09:56:53;3.90;;;2.87;;
15071;SDS011;7635;56.696;13.002;2023-03-17T09:59:29;3.77;;;2.60;;
15071;SDS011;7635;56.696;13.002;2023-03-17T10:02:00;4.07;;;2.63;;
15071;SDS011;7635;56.696;13.002;2023-03-17T10:04:26;3.77;;;2.57;;
15071;SDS011;7635;56.696;13.002;2023-03-17T10:06:56;4.93;;;2.43;;
15071;SDS011;7635;56.696;13.002;2023-03-17T10:09:29;4.53;;;3.30;;
15071;SDS011;7635;56.696;13.002;2023-03-17T10:12:01;4.17;;;2.37;;
15071;SDS011;7635;56.696;13.002;2023-03-17T10:14:37;4.90;;;2.60;;
15071;SDS011;7635;56.696;13.002;2023-03-17T10:17:15;12.63;;;6.50;;
15071;SDS011;7635;56.696;13.002;2023-03-17T10:19:44;7.67;;;4.30;;
15071;SDS011;7635;56.696;13.002;2023-03-17T10:22:20;5.33;;;3.30;;
15071;SDS011;7635;56.696;13.002;2023-03-17T10:24:52;7.33;;;3.30;;
15071;SDS011;7635;56.696;13.002;2023-03-17T10:27:22;3.97;;;3.20;;
15071;SDS011;7635;56.696;13.002;2023-03-17T10:29:50;4.33;;;2.77;;
15071;SDS011;7635;56.696;13.002;2023-03-17T10:32:18;4.83;;;2.67;;
15071;SDS011;7635;56.696;13.002;2023-03-17T10:34:45;1.97;;;1.87;;
15071;SDS011;7635;56.696;13.002;2023-03-17T10:37:13;4.87;;;2.73;;
15071;SDS011;7635;56.696;13.002;2023-03-17T10:39:43;7.30;;;3.33;;
15071;SDS011;7635;56.696;13.002;2023-03-17T10:42:12;7.13;;;4.70;;
15071;SDS011;7635;56.696;13.002;2023-03-17T10:44:47;6.37;;;4.10;;
15071;SDS011;7635;56.696;13.002;2023-03-17T10:47:23;1.63;;;1.50;;
15071;SDS011;7635;56.696;13.002;2023-03-17T10:49:54;4.73;;;3.00;;
15071;SDS011;7635;56.696;13.002;2023-03-17T10:52:24;2.73;;;1.73;;
15071;SDS011;7635;56.696;13.002;2023-03-17T10:54:54;7.23;;;5.40;;
15071;SDS011;7635;56.696;13.002;2023-03-17T10:57:25;3.43;;;2.40;;
15071;SDS011;7635;56.696;13.002;2023-03-17T10:59:53;4.17;;;2.83;;
15071;SDS011;7635;56.696;13.002;2023-03-17T11:02:24;4.97;;;2.67;;
15071;SDS011;7635;56.696;13.002;2023-03-17T11:04:54;4.50;;;2.87;;
15071;SDS011;7635;56.696;13.002;2023-03-17T11:07:26;2.37;;;1.80;;
15071;SDS011;7635;56.696;13.002;2023-03-17T11:09:56;3.83;;;2.40;;
15071;SDS011;7635;56.696;13.002;2023-03-17T11:12:26;3.10;;;2.20;;
15071;SDS011;7635;56.696;13.002;2023-03-17T11:14:57;5.93;;;2.87;;
15071;SDS011;7635;56.696;13.002;2023-03-17T11:17:31;5.27;;;4.07;;
15071;SDS011;7635;56.696;13.002;2023-03-17T11:20:09;4.63;;;3.27;;
15071;SDS011;7635;56.696;13.002;2023-03-17T11:22:53;4.33;;;2.83;;
15071;SDS011;7635;56.696;13.002;2023-03-17T11:25:26;5.90;;;3.40;;
15071;SDS011;7635;56.696;13.002;2023-03-17T11:27:57;6.77;;;3.97;;
15071;SDS011;7635;56.696;13.002;2023-03-17T11:30:33;5.47;;;3.10;;
15071;SDS011;7635;56.696;13.002;2023-03-17T11:33:04;2.80;;;2.47;;
15071;SDS011;7635;56.696;13.002;2023-03-17T11:35:41;5.30;;;2.23;;
15071;SDS011;7635;56.696;13.002;2023-03-17T11:38:17;2.80;;;2.30;;
15071;SDS011;7635;56.696;13.002;2023-03-17T11:40:53;5.60;;;2.77;;
15071;SDS011;7635;56.696;13.002;2023-03-17T11:43:42;6.63;;;2.70;;
15071;SDS011;7635;56.696;13.002;2023-03-17T11:46:27;2.90;;;2.33;;
15071;SDS011;7635;56.696;13.002;2023-03-17T11:48:57;4.33;;;2.47;;
15071;SDS011;7635;56.696;13.002;2023-03-17T11:51:31;4.07;;;2.67;;
15071;SDS011;7635;56.696;13.002;2023-03-17T11:54:06;6.20;;;2.83;;
15071;SDS011;7635;56.696;13.002;2023-03-17T11:56:37;2.73;;;2.03;;
15071;SDS011;7635;56.696;13.002;2023-03-17T11:59:10;5.00;;;2.87;;
15071;SDS011;7635;56.696;13.002;2023-03-17T12:01:44;5.33;;;2.53;;
15071;SDS011;7635;56.696;13.002;2023-03-17T12:04:21;5.27;;;2.30;;
15071;SDS011;7635;56.696;13.002;2023-03-17T12:06:55;6.13;;;2.80;;
15071;SDS011;7635;56.696;13.002;2023-03-17T12:09:26;4.77;;;2.77;;
15071;SDS011;7635;56.696;13.002;2023-03-17T12:11:57;3.57;;;2.57;;
15071;SDS011;7635;56.696;13.002;2023-03-17T12:14:27;4.47;;;2.90;;
15071;SDS011;7635;56.696;13.002;2023-03-17T12:16:59;6.80;;;2.90;;
15071;SDS011;7635;56.696;13.002;2023-03-17T12:19:34;3.00;;;2.43;;
15071;SDS011;7635;56.696;13.002;2023-03-17T12:22:07;5.77;;;3.20;;
15071;SDS011;7635;56.696;13.002;2023-03-17T12:24:39;4.73;;;2.90;;
15071;SDS011;7635;56.696;13.002;2023-03-17T12:27:08;4.27;;;2.40;;
15071;SDS011;7635;56.696;13.002;2023-03-17T12:29:40;5.50;;;2.87;;
15071;SDS011;7635;56.696;13.002;2023-03-17T12:32:15;5.80;;;3.03;;
15071;SDS011;7635;56.696;13.002;2023-03-17T12:34:48;4.83;;;2.60;;
15071;SDS011;7635;56.696;13.002;2023-03-17T12:37:17;7.90;;;3.00;;
15071;SDS011;7635;56.696;13.002;2023-03-17T12:39:46;4.47;;;2.80;;
15071;SDS011;7635;56.696;13.002;2023-03-17T12:42:21;4.77;;;2.87;;
15071;SDS011;7635;56.696;13.002;2023-03-17T12:45:03;6.23;;;3.03;;
15071;SDS011;7635;56.696;13.002;2023-03-17T12:47:49;7.40;;;3.17;;
15071;SDS011;7635;56.696;13.002;2023-03-17T12:50:30;6.23;;;3.60;;
15071;SDS011;7635;56.696;13.002;2023-03-17T12:53:21;4.90;;;3.30;;
15071;SDS011;7635;56.696;13.002;2023-03-17T12:55:53;4.00;;;3.10;;
15071;SDS011;7635;56.696;13.002;2023-03-17T12:58:30;4.83;;;3.27;;
15071;SDS011;7635;56.696;13.002;2023-03-17T13:01:05;5.17;;;3.10;;
15071;SDS011;7635;56.696;13.002;2023-03-17T13:03:44;3.53;;;2.30;;
15071;SDS011;7635;56.696;13.002;2023-03-17T13:06:22;5.73;;;2.87;;
15071;SDS011;7635;56.696;13.002;2023-03-17T13:08:50;5.40;;;3.40;;
15071;SDS011;7635;56.696;13.002;2023-03-17T13:11:24;4.30;;;2.93;;
15071;SDS011;7635;56.696;13.002;2023-03-17T13:14:05;4.43;;;3.00;;
15071;SDS011;7635;56.696;13.002;2023-03-17T13:16:40;3.57;;;2.93;;
15071;SDS011;7635;56.696;13.002;2023-03-17T13:19:12;4.83;;;2.70;;
15071;SDS011;7635;56.696;13.002;2023-03-17T13:21:47;3.43;;;2.63;;
15071;SDS011;7635;56.696;13.002;2023-03-17T13:24:33;4.07;;;1.90;;
15071;SDS011;7635;56.696;13.002;2023-03-17T13:27:08;4.30;;;2.90;;
15071;SDS011;7635;56.696;13.002;2023-03-17T13:29:38;6.30;;;3.47;;
15071;SDS011;7635;56.696;13.002;2023-03-17T13:35:12;3.80;;;2.57;;
15071;SDS011;7635;56.696;13.002;2023-03-17T13:37:47;3.23;;;2.23;;
15071;SDS011;7635;56.696;13.002;2023-03-17T13:40:38;4.33;;;3.03;;
15071;SDS011;7635;56.696;13.002;2023-03-17T13:43:18;3.47;;;2.23;;
15071;SDS011;7635;56.696;13.002;2023-03-17T13:46:14;4.50;;;3.03;;
15071;SDS011;7635;56.696;13.002;2023-03-17T13:48:46;8.43;;;3.00;;
15071;SDS011;7635;56.696;13.002;2023-03-17T13:51:16;3.57;;;2.83;;
15071;SDS011;7635;56.696;13.002;2023-03-17T13:53:48;5.17;;;3.27;;
15071;SDS011;7635;56.696;13.002;2023-03-17T13:56:20;3.87;;;2.90;;
15071;SDS011;7635;56.696;13.002;2023-03-17T13:58:49;5.87;;;2.43;;
15071;SDS011;7635;56.696;13.002;2023-03-17T14:01:31;4.03;;;3.07;;
15071;SDS011;7635;56.696;13.002;2023-03-17T14:04:04;6.67;;;2.93;;
15071;SDS011;7635;56.696;13.002;2023-03-17T14:06:37;6.37;;;3.50;;
15071;SDS011;7635;56.696;13.002;2023-03-17T14:09:08;5.33;;;2.63;;
15071;SDS011;7635;56.696;13.002;2023-03-17T14:11:44;5.90;;;2.80;;
15071;SDS011;7635;56.696;13.002;2023-03-17T14:14:17;5.00;;;3.10;;
15071;SDS011;7635;56.696;13.002;2023-03-17T14:16:53;5.37;;;3.33;;
15071;SDS011;7635;56.696;13.002;2023-03-17T14:19:24;7.17;;;3.90;;
15071;SDS011;7635;56.696;13.002;2023-03-17T14:21:53;4.53;;;2.87;;
15071;SDS011;7635;56.696;13.002;2023-03-17T14:24:22;6.03;;;3.33;;
15071;SDS011;7635;56.696;13.002;2023-03-17T14:26:50;5.30;;;3.37;;
15071;SDS011;7635;56.696;13.002;2023-03-17T14:29:18;4.77;;;3.10;;
15071;SDS011;7635;56.696;13.002;2023-03-17T14:32:02;5.73;;;3.00;;
15071;SDS011;7635;56.696;13.002;2023-03-17T14:34:29;7.03;;;3.67;;
15071;SDS011;7635;56.696;13.002;2023-03-17T14:36:59;5.00;;;3.10;;
15071;SDS011;7635;56.696;13.002;2023-03-17T14:39:28;7.10;;;3.07;;
15071;SDS011;7635;56.696;13.002;2023-03-17T14:41:56;5.53;;;4.00;;
15071;SDS011;7635;56.696;13.002;2023-03-17T14:44:24;5.10;;;3.17;;
15071;SDS011;7635;56.696;13.002;2023-03-17T14:46:58;6.90;;;3.20;;
15071;SDS011;7635;56.696;13.002;2023-03-17T14:49:26;6.00;;;2.87;;
15071;SDS011;7635;56.696;13.002;2023-03-17T14:51:54;7.60;;;2.83;;
15071;SDS011;7635;56.696;13.002;2023-03-17T14:54:22;7.90;;;3.53;;
15071;SDS011;7635;56.696;13.002;2023-03-17T14:56:54;3.67;;;2.97;;
15071;SDS011;7635;56.696;13.002;2023-03-17T14:59:27;5.13;;;2.80;;
15071;SDS011;7635;56.696;13.002;2023-03-17T15:01:56;4.73;;;3.23;;
15071;SDS011;7635;56.696;13.002;2023-03-17T15:04:26;5.73;;;2.63;;
15071;SDS011;7635;56.696;13.002;2023-03-17T15:06:54;5.70;;;3.33;;